Time;durP1;ratioP1;P1;durP2;ratioP2;P2;SDS_P1;SDS_P2;PMS_P1;PMS_P2;Temp;Humidity;BMP_temperature;BMP_pressure;BME280_temperature;BME280_humidity;BME280_pressure;Samples;Min_cycle;Max_cycle;Signal;HPM_P1;HPM_P2
2021/10/25 00:00:32;;;;;;;;;33.50;30.50;;;;;;;;5063379;28;12276;-80
2021/10/25 00:02:59;;;;;;;;;18.50;15.50;;;;;;;;5064494;28;11679;-85
2021/10/25 00:05:27;;;;;;;;;32.75;23.50;;;;;;;;5064251;28;11708;-84
2021/10/25 00:07:55;;;;;;;;;29.00;25.00;;;;;;;;5059777;28;11761;-76
2021/10/25 00:10:24;;;;;;;;;22.50;20.25;;;;;;;;5065020;28;12309;-74
2021/10/25 00:12:52;;;;;;;;;27.50;24.75;;;;;;;;5065771;28;12432;-80
2021/10/25 00:15:19;;;;;;;;;34.25;28.00;;;;;;;;5061984;28;11598;-84
2021/10/25 00:17:47;;;;;;;;;23.75;23.50;;;;;;;;5065605;28;11709;-87
2021/10/25 00:20:14;;;;;;;;;31.00;26.25;;;;;;;;5067025;28;11697;-75
2021/10/25 00:22:42;;;;;;;;;29.50;27.50;;;;;;;;5063538;28;11592;-80
2021/10/25 00:25:10;;;;;;;;;34.00;32.75;;;;;;;;5077970;28;11567;-81
2021/10/25 00:27:39;;;;;;;;;34.25;31.50;;;;;;;;5065875;28;11606;-83
2021/10/25 00:30:08;;;;;;;;;28.25;27.50;;;;;;;;5066409;28;11577;-85
2021/10/25 00:32:37;;;;;;;;;27.00;24.50;;;;;;;;5069068;28;11571;-81
2021/10/25 00:35:04;;;;;;;;;28.75;26.75;;;;;;;;5065377;28;11703;-77
2021/10/25 00:37:32;;;;;;;;;34.50;32.25;;;;;;;;5063870;28;11615;-77
2021/10/25 00:39:59;;;;;;;;;28.50;26.75;;;;;;;;5064137;28;11601;-80
2021/10/25 00:42:26;;;;;;;;;30.25;27.00;;;;;;;;5065866;28;11540;-83
2021/10/25 00:44:55;;;;;;;;;32.50;32.25;;;;;;;;5063312;28;11607;-79
2021/10/25 00:47:23;;;;;;;;;29.50;27.75;;;;;;;;5063204;28;11657;-83
2021/10/25 00:49:50;;;;;;;;;26.75;23.00;;;;;;;;5068808;28;11552;-86
2021/10/25 00:52:19;;;;;;;;;25.00;22.25;;;;;;;;5065296;28;11587;-83
2021/10/25 00:54:46;;;;;;;;;23.00;21.50;;;;;;;;5061319;28;11745;-85
2021/10/25 00:57:13;;;;;;;;;22.25;19.75;;;;;;;;5065001;28;11571;-83
2021/10/25 00:59:41;;;;;;;;;23.75;23.75;;;;;;;;5064121;28;11553;-81
2021/10/25 01:02:09;;;;;;;;;27.00;23.00;;;;;;;;5063804;28;11575;-82
2021/10/25 01:04:37;;;;;;;;;26.25;19.50;;;;;;;;5063678;28;11539;-77
2021/10/25 01:07:04;;;;;;;;;19.25;18.75;;;;;;;;5062665;28;11500;-85
2021/10/25 01:09:33;;;;;;;;;17.50;17.50;;;;;;;;5065942;28;11597;-83
2021/10/25 01:12:00;;;;;;;;;18.75;18.75;;;;;;;;5066982;28;11534;-81
2021/10/25 01:14:27;;;;;;;;;16.75;15.00;;;;;;;;5063655;28;11616;-81
2021/10/25 01:16:55;;;;;;;;;19.00;16.25;;;;;;;;5072510;28;11530;-79
2021/10/25 01:19:24;;;;;;;;;23.25;19.00;;;;;;;;5064892;28;11489;-82
2021/10/25 01:21:52;;;;;;;;;12.75;10.50;;;;;;;;5062842;28;11516;-84
2021/10/25 01:24:20;;;;;;;;;18.75;14.50;;;;;;;;5063359;28;11577;-80
2021/10/25 01:26:47;;;;;;;;;21.50;20.00;;;;;;;;5065001;28;11531;-84
2021/10/25 01:29:18;;;;;;;;;18.50;16.00;;;;;;;;5068094;28;11490;-79
2021/10/25 01:31:45;;;;;;;;;13.25;13.25;;;;;;;;5074910;28;11477;-81
2021/10/25 01:34:13;;;;;;;;;10.75;10.50;;;;;;;;5064953;28;11487;-83
2021/10/25 01:36:41;;;;;;;;;15.50;15.50;;;;;;;;5067650;28;11598;-81
2021/10/25 01:39:10;;;;;;;;;19.00;18.00;;;;;;;;5062937;28;11509;-79
2021/10/25 01:41:38;;;;;;;;;20.00;15.75;;;;;;;;5063323;28;11645;-80
2021/10/25 01:44:11;;;;;;;;;15.25;14.00;;;;;;;;5061830;28;12367;-78
2021/10/25 01:46:38;;;;;;;;;7.75;7.75;;;;;;;;5060307;28;11577;-76
2021/10/25 01:49:06;;;;;;;;;13.00;12.50;;;;;;;;5062912;28;11496;-81
2021/10/25 01:51:35;;;;;;;;;19.00;16.75;;;;;;;;5061790;28;11494;-86
2021/10/25 01:54:03;;;;;;;;;14.25;11.75;;;;;;;;5064463;28;11492;-76
2021/10/25 01:56:32;;;;;;;;;18.75;18.25;;;;;;;;5061906;28;11502;-86
2021/10/25 01:58:59;;;;;;;;;14.50;13.75;;;;;;;;5061444;28;11541;-80
2021/10/25 02:01:27;;;;;;;;;13.75;13.75;;;;;;;;5064184;28;11460;-73
2021/10/25 02:03:54;;;;;;;;;15.50;13.75;;;;;;;;5059425;28;11643;-76
2021/10/25 02:06:21;;;;;;;;;15.25;14.50;;;;;;;;5063450;28;11644;-82
2021/10/25 02:08:48;;;;;;;;;19.75;15.50;;;;;;;;5061442;28;11318;-74
2021/10/25 02:11:16;;;;;;;;;14.75;14.75;;;;;;;;5053312;28;11537;-81
2021/10/25 02:13:45;;;;;;;;;15.00;15.00;;;;;;;;5058350;28;11511;-78
2021/10/25 02:16:12;;;;;;;;;15.50;14.25;;;;;;;;5057659;28;11295;-79
2021/10/25 02:18:40;;;;;;;;;16.25;15.00;;;;;;;;5078651;28;11287;-78
2021/10/25 02:21:08;;;;;;;;;17.00;14.00;;;;;;;;5062455;28;11285;-83
2021/10/25 02:23:35;;;;;;;;;16.00;16.00;;;;;;;;5064258;28;11127;-80
2021/10/25 02:26:03;;;;;;;;;15.50;14.50;;;;;;;;5061491;28;11330;-83
2021/10/25 02:28:31;;;;;;;;;14.00;14.00;;;;;;;;5060357;28;11207;-77
2021/10/25 02:31:00;;;;;;;;;13.25;12.25;;;;;;;;5063989;28;11563;-80
2021/10/25 02:33:27;;;;;;;;;17.75;15.50;;;;;;;;5060714;28;11319;-79
2021/10/25 02:35:54;;;;;;;;;15.50;15.00;;;;;;;;5072430;28;12358;-81
2021/10/25 02:38:22;;;;;;;;;9.50;7.75;;;;;;;;5055081;28;12081;-79
2021/10/25 02:40:49;;;;;;;;;14.25;11.50;;;;;;;;5071142;28;11284;-85
2021/10/25 02:43:16;;;;;;;;;20.00;16.00;;;;;;;;5068196;28;11190;-77
2021/10/25 02:45:44;;;;;;;;;16.75;16.75;;;;;;;;5058341;28;11221;-83
2021/10/25 02:48:14;;;;;;;;;19.50;15.25;;;;;;;;5057974;28;11300;-83
2021/10/25 02:50:42;;;;;;;;;14.25;12.50;;;;;;;;5063639;28;11196;-79
2021/10/25 02:53:09;;;;;;;;;13.00;13.00;;;;;;;;5055708;28;11139;-81
2021/10/25 02:55:37;;;;;;;;;15.50;13.50;;;;;;;;5068144;28;11298;-85
2021/10/25 02:58:05;;;;;;;;;14.00;14.00;;;;;;;;5063212;28;10991;-79
2021/10/25 03:00:33;;;;;;;;;13.50;13.50;;;;;;;;5049256;28;10930;-81
2021/10/25 03:03:00;;;;;;;;;16.00;15.00;;;;;;;;5060723;28;11926;-79
2021/10/25 03:05:29;;;;;;;;;12.75;12.25;;;;;;;;5062777;28;10891;-77
2021/10/25 03:07:57;;;;;;;;;15.00;12.50;;;;;;;;5062122;28;10905;-77
2021/10/25 03:10:24;;;;;;;;;10.75;10.75;;;;;;;;5062394;28;10922;-75
2021/10/25 03:12:52;;;;;;;;;12.50;12.00;;;;;;;;5060652;28;10990;-76
2021/10/25 03:15:19;;;;;;;;;15.50;15.50;;;;;;;;5061927;28;10814;-80
2021/10/25 03:17:47;;;;;;;;;15.50;12.00;;;;;;;;5064264;28;10919;-79
2021/10/25 03:20:14;;;;;;;;;17.00;17.00;;;;;;;;5077183;28;10664;-85
2021/10/25 03:22:43;;;;;;;;;12.50;12.50;;;;;;;;5056580;28;10846;-81
2021/10/25 03:25:12;;;;;;;;;11.00;11.00;;;;;;;;5067505;28;10743;-88
2021/10/25 03:27:40;;;;;;;;;12.75;11.25;;;;;;;;5064268;28;10819;-77
2021/10/25 03:30:08;;;;;;;;;11.75;9.25;;;;;;;;5065316;28;10882;-79
2021/10/25 03:32:36;;;;;;;;;11.25;11.25;;;;;;;;5066239;28;11584;-82
2021/10/25 03:35:03;;;;;;;;;11.25;11.00;;;;;;;;5072939;28;10787;-83
2021/10/25 03:37:33;;;;;;;;;8.00;8.00;;;;;;;;5064993;28;10763;-79
2021/10/25 03:40:02;;;;;;;;;12.00;12.00;;;;;;;;5061193;28;10648;-79
2021/10/25 03:42:32;;;;;;;;;12.00;12.00;;;;;;;;5065367;28;10681;-83
2021/10/25 03:45:07;;;;;;;;;12.00;10.00;;;;;;;;5066902;28;10755;-79
2021/10/25 03:47:39;;;;;;;;;11.50;11.00;;;;;;;;5064554;28;10825;-79
2021/10/25 03:50:10;;;;;;;;;14.00;14.00;;;;;;;;5074489;28;10741;-77
2021/10/25 03:52:42;;;;;;;;;14.25;11.75;;;;;;;;5065965;28;10722;-88
2021/10/25 03:55:16;;;;;;;;;16.25;12.75;;;;;;;;5055140;28;10849;-81
2021/10/25 04:28:04;;;;;;;;;12.00;12.00;;;;;;;;5067420;28;10801;-83
2021/10/25 04:30:33;;;;;;;;;16.75;16.75;;;;;;;;5063400;28;10899;-83
2021/10/25 04:33:01;;;;;;;;;12.00;12.00;;;;;;;;5064966;28;10943;-86
2021/10/25 04:35:29;;;;;;;;;16.25;16.25;;;;;;;;5059413;28;10996;-85
2021/10/25 04:37:57;;;;;;;;;15.50;15.25;;;;;;;;5064338;28;10895;-83
2021/10/25 04:40:24;;;;;;;;;17.75;16.00;;;;;;;;5065184;28;10981;-84
2021/10/25 04:42:52;;;;;;;;;16.00;16.00;;;;;;;;5073847;28;10891;-81
2021/10/25 04:45:21;;;;;;;;;16.00;15.25;;;;;;;;5051151;28;11001;-78
2021/10/25 04:47:51;;;;;;;;;17.75;15.00;;;;;;;;5064758;28;10943;-80
2021/10/25 04:50:19;;;;;;;;;16.00;13.25;;;;;;;;5066032;28;10646;-84
2021/10/25 04:52:46;;;;;;;;;14.75;14.75;;;;;;;;5064040;28;10605;-81
2021/10/25 04:55:14;;;;;;;;;13.75;13.75;;;;;;;;5077511;28;10608;-81
2021/10/25 04:57:41;;;;;;;;;17.50;12.00;;;;;;;;5067342;28;11431;-77
2021/10/25 05:00:09;;;;;;;;;15.75;15.75;;;;;;;;5063674;28;10963;-84
2021/10/25 05:02:38;;;;;;;;;15.50;14.00;;;;;;;;5066560;28;10787;-75
2021/10/25 05:05:06;;;;;;;;;13.50;13.50;;;;;;;;5066481;28;10725;-83
2021/10/25 05:07:34;;;;;;;;;9.50;9.50;;;;;;;;5067545;28;10840;-86
2021/10/25 05:10:03;;;;;;;;;12.75;12.75;;;;;;;;5064487;28;10923;-75
2021/10/25 05:12:31;;;;;;;;;15.25;15.25;;;;;;;;5056437;28;11637;-75
2021/10/25 05:14:58;;;;;;;;;15.50;12.25;;;;;;;;5062023;28;10810;-75
2021/10/25 05:17:26;;;;;;;;;15.75;15.75;;;;;;;;5064337;28;10968;-80
2021/10/25 05:19:55;;;;;;;;;9.25;9.25;;;;;;;;5061927;28;10844;-75
2021/10/25 05:22:23;;;;;;;;;22.00;18.75;;;;;;;;5064624;28;10899;-90
2021/10/25 05:24:51;;;;;;;;;17.25;15.50;;;;;;;;5060281;28;11140;-73
2021/10/25 05:27:21;;;;;;;;;18.75;14.75;;;;;;;;5062225;28;11865;-72
2021/10/25 05:29:48;;;;;;;;;24.25;21.50;;;;;;;;5062706;28;11792;-75
2021/10/25 05:32:15;;;;;;;;;22.25;22.00;;;;;;;;5061304;28;11127;-74
2021/10/25 05:34:43;;;;;;;;;23.00;19.75;;;;;;;;5060410;28;11148;-77
2021/10/25 05:37:11;;;;;;;;;20.25;20.25;;;;;;;;5055704;28;10996;-77
2021/10/25 05:39:39;;;;;;;;;16.75;16.75;;;;;;;;5060079;28;11032;-76
2021/10/25 05:42:07;;;;;;;;;20.25;20.25;;;;;;;;5059680;28;11105;-76
2021/10/25 05:44:36;;;;;;;;;20.00;20.00;;;;;;;;5060863;28;11027;-77
2021/10/25 05:47:04;;;;;;;;;16.75;15.75;;;;;;;;5060026;28;11035;-74
2021/10/25 05:49:32;;;;;;;;;16.75;16.75;;;;;;;;5059642;28;10910;-76
2021/10/25 05:51:59;;;;;;;;;16.25;16.25;;;;;;;;5060610;28;11858;-74
2021/10/25 05:54:28;;;;;;;;;15.50;12.75;;;;;;;;5062915;28;10816;-71
2021/10/25 05:56:55;;;;;;;;;44.25;40.00;;;;;;;;5058241;28;10827;-72
2021/10/25 05:59:25;;;;;;;;;18.50;16.75;;;;;;;;5058077;28;11524;-71
2021/10/25 06:02:07;;;;;;;;;16.75;15.75;;;;;;;;5059105;28;11060;-72
2021/10/25 06:04:34;;;;;;;;;30.50;29.50;;;;;;;;5063594;28;11699;-71
2021/10/25 06:07:02;;;;;;;;;17.75;16.50;;;;;;;;5058835;28;11322;-72
2021/10/25 06:09:34;;;;;;;;;16.00;16.00;;;;;;;;5060764;28;11613;-73
2021/10/25 06:12:04;;;;;;;;;17.50;16.25;;;;;;;;5059887;28;10899;-71
2021/10/25 06:14:36;;;;;;;;;18.00;18.00;;;;;;;;5060112;28;10987;-72
2021/10/25 06:17:14;;;;;;;;;19.75;16.25;;;;;;;;5060161;28;10881;-73
2021/10/25 06:19:42;;;;;;;;;17.25;16.50;;;;;;;;5059557;28;10679;-74
2021/10/25 06:22:10;;;;;;;;;21.50;18.00;;;;;;;;5060957;28;10737;-74
2021/10/25 06:24:38;;;;;;;;;13.25;13.25;;;;;;;;5059751;28;10681;-75
2021/10/25 06:27:06;;;;;;;;;12.50;12.50;;;;;;;;5059822;28;10806;-73
2021/10/25 06:29:34;;;;;;;;;13.25;13.25;;;;;;;;5057976;28;10799;-73
2021/10/25 06:32:01;;;;;;;;;21.75;18.50;;;;;;;;5057259;28;10566;-74
2021/10/25 06:34:35;;;;;;;;;14.25;14.25;;;;;;;;5061733;28;10741;-78
2021/10/25 06:37:03;;;;;;;;;13.00;13.00;;;;;;;;5057235;28;10604;-77
2021/10/25 06:39:36;;;;;;;;;19.00;15.00;;;;;;;;5062781;28;10631;-80
2021/10/25 06:42:05;;;;;;;;;15.50;12.75;;;;;;;;5052579;28;10769;-76
2021/10/25 06:44:35;;;;;;;;;21.50;21.50;;;;;;;;5058563;28;10727;-76
2021/10/25 06:47:03;;;;;;;;;12.75;12.00;;;;;;;;5057352;28;11073;-80
2021/10/25 06:49:30;;;;;;;;;12.50;11.75;;;;;;;;5055739;28;10841;-77
2021/10/25 06:51:57;;;;;;;;;13.00;13.00;;;;;;;;5060100;28;10516;-76
2021/10/25 06:54:25;;;;;;;;;13.50;13.50;;;;;;;;5058044;28;10522;-79
2021/10/25 06:56:52;;;;;;;;;13.25;13.00;;;;;;;;5058602;28;10558;-79
2021/10/25 06:59:22;;;;;;;;;12.00;12.00;;;;;;;;5060374;28;11303;-79
2021/10/25 07:01:49;;;;;;;;;14.75;13.00;;;;;;;;5053130;28;10658;-80
2021/10/25 07:04:17;;;;;;;;;12.50;12.50;;;;;;;;5060411;28;10877;-79
2021/10/25 07:06:44;;;;;;;;;7.50;7.50;;;;;;;;5056737;28;10686;-79
2021/10/25 07:09:12;;;;;;;;;13.50;12.25;;;;;;;;5053506;28;10792;-80
2021/10/25 07:11:43;;;;;;;;;16.00;15.25;;;;;;;;5054240;28;10662;-78
2021/10/25 07:14:11;;;;;;;;;10.25;10.00;;;;;;;;5056484;28;10555;-78
2021/10/25 07:16:43;;;;;;;;;15.75;15.75;;;;;;;;5051795;28;10611;-78
2021/10/25 07:19:24;;;;;;;;;19.75;17.00;;;;;;;;5053683;28;10773;-76
2021/10/25 07:22:16;;;;;;;;;13.00;13.00;;;;;;;;5063454;28;10768;-77
2021/10/25 08:01:13;;;;;;;;;19.25;17.50;;;;;;;;5060477;28;10661;-75
2021/10/25 08:06:33;;;;;;;;;15.75;15.75;;;;;;;;5061019;28;10762;-75
2021/10/25 08:09:09;;;;;;;;;18.25;18.25;;;;;;;;5061897;28;10886;-76
2021/10/25 08:11:42;;;;;;;;;20.50;18.00;;;;;;;;5064150;28;10829;-77
2021/10/25 08:14:11;;;;;;;;;22.00;20.25;;;;;;;;5060176;28;10741;-76
2021/10/25 08:16:47;;;;;;;;;16.75;16.75;;;;;;;;5061426;28;10790;-74
2021/10/25 08:19:25;;;;;;;;;22.75;21.50;;;;;;;;5062525;28;11767;-77
2021/10/25 08:21:58;;;;;;;;;21.25;17.50;;;;;;;;5060884;28;10829;-72
2021/10/25 08:24:26;;;;;;;;;17.75;17.75;;;;;;;;5061642;28;11406;-73
2021/10/25 08:26:54;;;;;;;;;17.00;17.00;;;;;;;;5064841;28;10824;-77
2021/10/25 08:29:22;;;;;;;;;20.50;18.00;;;;;;;;5064369;28;10691;-74
2021/10/25 08:31:56;;;;;;;;;22.75;21.75;;;;;;;;5063421;28;10682;-76
2021/10/25 08:34:40;;;;;;;;;19.75;19.75;;;;;;;;5063738;28;10891;-74
2021/10/25 08:39:57;;;;;;;;;21.75;20.25;;;;;;;;5063658;28;10891;-73
2021/10/25 08:42:28;;;;;;;;;17.00;16.75;;;;;;;;5064390;28;10757;-77
2021/10/25 08:44:58;;;;;;;;;22.25;14.75;;;;;;;;5062368;28;10797;-73
2021/10/25 08:47:30;;;;;;;;;23.25;23.25;;;;;;;;5063205;28;10978;-74
2021/10/25 08:49:57;;;;;;;;;24.00;20.50;;;;;;;;5064790;28;10958;-73
2021/10/25 08:52:27;;;;;;;;;20.25;18.75;;;;;;;;5062831;28;11764;-74
2021/10/25 08:54:54;;;;;;;;;24.50;23.50;;;;;;;;5064198;28;11644;-74
2021/10/25 08:57:23;;;;;;;;;28.00;25.25;;;;;;;;5065742;28;10906;-72
2021/10/25 09:00:00;;;;;;;;;22.50;22.50;;;;;;;;5063907;28;11113;-73
2021/10/25 09:02:30;;;;;;;;;23.00;23.00;;;;;;;;5062989;28;10869;-70
2021/10/25 09:05:03;;;;;;;;;29.00;25.50;;;;;;;;5062315;28;10831;-72
2021/10/25 09:07:34;;;;;;;;;25.00;25.00;;;;;;;;5064844;28;10851;-72
2021/10/25 09:10:07;;;;;;;;;24.25;20.25;;;;;;;;5063728;28;10922;-74
2021/10/25 09:12:35;;;;;;;;;23.00;20.50;;;;;;;;5064817;28;10578;-72
2021/10/25 09:15:02;;;;;;;;;25.50;23.50;;;;;;;;5063992;28;10735;-74
2021/10/25 09:17:41;;;;;;;;;24.25;23.00;;;;;;;;5062674;28;10667;-74
2021/10/25 09:20:09;;;;;;;;;24.00;22.00;;;;;;;;5064589;28;10682;-73
2021/10/25 09:22:38;;;;;;;;;24.75;23.50;;;;;;;;5062843;28;10522;-72
2021/10/25 09:25:06;;;;;;;;;25.50;23.75;;;;;;;;5064080;28;10531;-73
2021/10/25 09:27:36;;;;;;;;;30.00;26.75;;;;;;;;5064138;28;10699;-76
2021/10/25 09:30:12;;;;;;;;;27.00;22.50;;;;;;;;5063532;28;10676;-75
2021/10/25 09:32:41;;;;;;;;;23.75;21.00;;;;;;;;5063445;28;10676;-76
2021/10/25 09:35:17;;;;;;;;;26.00;24.25;;;;;;;;5063684;28;10539;-74
2021/10/25 09:37:53;;;;;;;;;23.00;23.00;;;;;;;;5059216;28;10511;-77
2021/10/25 09:40:25;;;;;;;;;24.25;24.25;;;;;;;;5075356;28;10519;-74
2021/10/25 09:51:10;;;;;;;;;20.75;18.75;;;;;;;;5063989;28;11327;-76
2021/10/25 09:53:43;;;;;;;;;28.50;28.50;;;;;;;;5061841;28;10515;-77
2021/10/25 09:56:13;;;;;;;;;30.25;28.25;;;;;;;;5060362;28;10541;-77
2021/10/25 09:58:46;;;;;;;;;28.50;26.25;;;;;;;;5063017;28;10462;-74
2021/10/25 10:01:23;;;;;;;;;28.50;26.50;;;;;;;;5061869;28;10307;-77
2021/10/25 10:03:52;;;;;;;;;29.00;29.00;;;;;;;;5059635;28;10349;-75
2021/10/25 10:06:20;;;;;;;;;27.25;25.50;;;;;;;;5061895;28;10498;-74
2021/10/25 10:08:50;;;;;;;;;27.75;27.75;;;;;;;;5064558;28;10395;-77
2021/10/25 10:11:19;;;;;;;;;35.75;26.25;;;;;;;;5062689;28;10230;-78
2021/10/25 10:13:46;;;;;;;;;26.00;26.00;;;;;;;;5063308;28;10253;-78
2021/10/25 10:16:15;;;;;;;;;32.00;28.25;;;;;;;;5062853;28;10090;-77
2021/10/25 10:18:45;;;;;;;;;33.75;27.50;;;;;;;;5062402;28;10171;-78
2021/10/25 10:21:15;;;;;;;;;31.00;27.00;;;;;;;;5063270;28;10145;-76
2021/10/25 10:23:46;;;;;;;;;26.25;26.00;;;;;;;;5059739;28;10098;-77
2021/10/25 10:26:16;;;;;;;;;33.00;28.00;;;;;;;;5057851;28;10073;-78
2021/10/25 10:28:47;;;;;;;;;27.50;27.00;;;;;;;;5062363;28;10087;-78
2021/10/25 10:31:16;;;;;;;;;30.00;29.00;;;;;;;;5062208;28;10047;-78
2021/10/25 10:33:46;;;;;;;;;24.75;22.00;;;;;;;;5059398;28;10020;-75
2021/10/25 10:36:17;;;;;;;;;30.00;24.75;;;;;;;;5067199;28;10009;-76
2021/10/25 10:38:46;;;;;;;;;23.00;23.00;;;;;;;;5067710;28;10011;-77
2021/10/25 10:41:17;;;;;;;;;23.75;23.75;;;;;;;;5065795;28;10061;-76
2021/10/25 10:43:59;;;;;;;;;29.00;25.75;;;;;;;;5066658;28;9813;-78
2021/10/25 10:46:26;;;;;;;;;26.75;26.50;;;;;;;;5058689;28;9792;-76
2021/10/25 10:48:58;;;;;;;;;23.25;23.25;;;;;;;;5065836;28;9809;-77
2021/10/25 10:51:33;;;;;;;;;27.25;24.50;;;;;;;;5065469;28;10008;-77
2021/10/25 10:54:11;;;;;;;;;26.00;25.50;;;;;;;;5066314;28;9884;-77
2021/10/25 10:56:52;;;;;;;;;28.25;25.25;;;;;;;;5067716;28;9781;-75
2021/10/25 10:59:34;;;;;;;;;26.00;23.75;;;;;;;;5066858;28;9816;-77
2021/10/25 11:02:01;;;;;;;;;25.50;25.50;;;;;;;;5052268;28;10526;-78
2021/10/25 11:04:30;;;;;;;;;30.25;28.75;;;;;;;;5066891;28;9744;-79
2021/10/25 11:07:01;;;;;;;;;24.75;20.75;;;;;;;;5064701;28;9832;-77
2021/10/25 11:09:33;;;;;;;;;27.50;25.25;;;;;;;;5066104;28;9639;-79
2021/10/25 11:12:04;;;;;;;;;30.25;30.25;;;;;;;;5061022;28;9499;-83
2021/10/25 11:14:35;;;;;;;;;22.50;21.00;;;;;;;;5068491;28;9621;-78
2021/10/25 11:17:19;;;;;;;;;23.50;23.00;;;;;;;;5062771;28;9604;-80
2021/10/25 11:19:51;;;;;;;;;26.50;24.50;;;;;;;;5062522;28;9572;-79
2021/10/25 11:22:30;;;;;;;;;17.00;15.00;;;;;;;;5064525;28;9569;-79
2021/10/25 11:24:58;;;;;;;;;29.25;24.00;;;;;;;;5065822;28;9516;-80
2021/10/25 11:27:42;;;;;;;;;31.75;24.50;;;;;;;;5068053;28;9621;-80
2021/10/25 11:30:12;;;;;;;;;28.50;24.50;;;;;;;;5062776;28;9566;-80
2021/10/25 11:32:41;;;;;;;;;32.25;24.50;;;;;;;;5067336;28;9641;-79
2021/10/25 11:35:12;;;;;;;;;31.75;27.50;;;;;;;;5066130;28;9635;-80
2021/10/25 11:37:46;;;;;;;;;24.75;24.75;;;;;;;;5062415;28;9640;-78
2021/10/25 11:40:17;;;;;;;;;18.00;18.00;;;;;;;;5067508;28;9472;-79
2021/10/25 11:42:47;;;;;;;;;37.00;29.75;;;;;;;;5060138;28;9609;-77
2021/10/25 11:45:17;;;;;;;;;30.50;28.50;;;;;;;;5064682;28;9580;-78
2021/10/25 11:47:46;;;;;;;;;22.25;22.25;;;;;;;;5061924;28;9560;-79
2021/10/25 11:50:15;;;;;;;;;27.00;25.00;;;;;;;;5064445;28;9646;-77
2021/10/25 11:52:48;;;;;;;;;32.25;26.75;;;;;;;;5065804;28;9628;-79
2021/10/25 11:55:17;;;;;;;;;36.00;30.00;;;;;;;;5064204;28;9551;-77
2021/10/25 11:57:49;;;;;;;;;24.25;22.00;;;;;;;;5066061;28;9660;-79
2021/10/25 12:00:19;;;;;;;;;26.25;26.25;;;;;;;;5064197;28;9712;-79
2021/10/25 12:02:47;;;;;;;;;19.75;19.75;;;;;;;;5065760;28;10346;-78
2021/10/25 12:05:23;;;;;;;;;14.50;14.50;;;;;;;;5065346;28;9488;-78
2021/10/25 12:07:51;;;;;;;;;28.25;27.00;;;;;;;;5063505;28;9588;-79
2021/10/25 12:10:20;;;;;;;;;28.67;26.00;;;;;;;;5066503;28;9522;-79
2021/10/25 12:12:51;;;;;;;;;31.25;27.75;;;;;;;;5064918;28;9427;-80
2021/10/25 12:15:20;;;;;;;;;22.33;20.67;;;;;;;;5065780;28;9424;-79
2021/10/25 12:17:49;;;;;;;;;30.33;30.33;;;;;;;;5065056;28;9328;-80
2021/10/25 12:20:23;;;;;;;;;25.33;24.00;;;;;;;;5066482;28;9342;-80
2021/10/25 12:22:59;;;;;;;;;29.67;26.00;;;;;;;;5065296;28;10087;-78
2021/10/25 12:25:27;;;;;;;;;24.00;24.00;;;;;;;;5063633;28;9237;-78
2021/10/25 12:27:59;;;;;;;;;24.67;23.00;;;;;;;;5065420;28;9341;-80
2021/10/25 12:30:28;;;;;;;;;30.75;27.00;;;;;;;;5077294;28;9332;-78
2021/10/25 12:32:58;;;;;;;;;27.25;27.25;;;;;;;;5064325;28;9488;-79
2021/10/25 12:35:38;;;;;;;;;31.00;29.25;;;;;;;;5081335;28;9462;-77
2021/10/25 12:38:09;;;;;;;;;29.33;27.33;;;;;;;;5058002;28;9558;-78
2021/10/25 12:40:41;;;;;;;;;26.33;23.33;;;;;;;;5083449;28;9538;-79
2021/10/25 12:43:10;;;;;;;;;25.33;25.33;;;;;;;;5071193;28;9569;-78
2021/10/25 12:45:41;;;;;;;;;27.75;25.75;;;;;;;;5064602;28;9345;-78
2021/10/25 12:48:10;;;;;;;;;29.50;27.00;;;;;;;;5064021;28;9419;-76
2021/10/25 12:50:40;;;;;;;;;33.25;32.25;;;;;;;;5064463;28;9547;-77
2021/10/25 12:53:09;;;;;;;;;28.33;27.33;;;;;;;;5061370;28;9563;-77
2021/10/25 12:55:38;;;;;;;;;28.25;26.50;;;;;;;;5063908;28;9432;-76
2021/10/25 12:58:11;;;;;;;;;32.25;31.25;;;;;;;;5062514;28;10352;-76
2021/10/25 13:00:40;;;;;;;;;31.00;31.00;;;;;;;;5061453;28;9527;-77
2021/10/25 13:03:10;;;;;;;;;31.25;28.50;;;;;;;;5061624;28;9648;-78
2021/10/25 13:05:39;;;;;;;;;33.00;31.25;;;;;;;;5063317;28;9473;-79
2021/10/25 13:08:08;;;;;;;;;32.50;32.50;;;;;;;;5065855;28;9630;-78
2021/10/25 13:10:38;;;;;;;;;28.75;28.75;;;;;;;;5063241;28;9668;-78
2021/10/25 13:13:07;;;;;;;;;30.75;30.00;;;;;;;;5062693;28;9603;-79
2021/10/25 13:15:37;;;;;;;;;34.25;31.25;;;;;;;;5064064;28;9656;-79
2021/10/25 13:18:08;;;;;;;;;34.50;32.75;;;;;;;;5059487;28;9666;-79
2021/10/25 13:20:40;;;;;;;;;37.50;34.25;;;;;;;;5063101;28;9638;-79
2021/10/25 13:23:08;;;;;;;;;34.75;33.50;;;;;;;;5060666;28;9669;-80
2021/10/25 13:25:36;;;;;;;;;38.00;35.50;;;;;;;;5063965;28;9631;-80
2021/10/25 13:28:08;;;;;;;;;34.50;32.25;;;;;;;;5063280;28;10466;-79
2021/10/25 13:30:38;;;;;;;;;32.00;29.33;;;;;;;;5062793;28;9429;-79
2021/10/25 13:33:05;;;;;;;;;36.33;35.00;;;;;;;;5061576;28;9493;-79
2021/10/25 13:35:33;;;;;;;;;31.67;29.67;;;;;;;;5062592;28;9412;-78
2021/10/25 13:38:01;;;;;;;;;35.00;29.33;;;;;;;;5063252;28;9233;-79
2021/10/25 13:40:30;;;;;;;;;27.67;27.67;;;;;;;;5056189;28;9115;-77
2021/10/25 13:42:59;;;;;;;;;29.00;27.33;;;;;;;;5063616;28;10191;-76
2021/10/25 13:45:26;;;;;;;;;26.67;26.67;;;;;;;;5062453;28;9146;-77
2021/10/25 13:47:55;;;;;;;;;27.33;25.00;;;;;;;;5064450;28;9293;-77
2021/10/25 13:50:23;;;;;;;;;27.33;23.33;;;;;;;;5063745;28;9068;-78
2021/10/25 13:52:51;;;;;;;;;23.67;22.00;;;;;;;;5063229;28;8997;-78
2021/10/25 13:55:18;;;;;;;;;24.33;21.00;;;;;;;;5069681;28;8967;-76
2021/10/25 13:57:50;;;;;;;;;26.00;24.33;;;;;;;;5083420;28;9023;-76
2021/10/25 14:00:18;;;;;;;;;24.00;22.33;;;;;;;;5083294;28;9648;-78
2021/10/25 14:02:47;;;;;;;;;19.50;17.75;;;;;;;;5082664;28;9027;-78
2021/10/25 14:05:19;;;;;;;;;16.25;16.25;;;;;;;;5083974;28;9591;-77
2021/10/25 14:07:47;;;;;;;;;18.75;16.75;;;;;;;;5077975;28;8901;-77
2021/10/25 14:10:18;;;;;;;;;19.00;16.50;;;;;;;;5062647;28;8875;-77
2021/10/25 14:12:47;;;;;;;;;17.50;17.50;;;;;;;;5062965;28;8854;-79
2021/10/25 14:15:21;;;;;;;;;18.75;16.75;;;;;;;;5061899;28;9016;-78
2021/10/25 14:17:51;;;;;;;;;19.50;18.50;;;;;;;;5062435;28;8859;-78
2021/10/25 14:20:21;;;;;;;;;21.25;17.50;;;;;;;;5061783;28;8933;-80
2021/10/25 14:22:50;;;;;;;;;14.25;14.25;;;;;;;;5062390;28;8846;-78
2021/10/25 14:25:17;;;;;;;;;17.75;15.75;;;;;;;;5062797;28;8859;-79
2021/10/25 14:27:44;;;;;;;;;14.50;14.50;;;;;;;;5062852;28;8863;-79
2021/10/25 14:30:12;;;;;;;;;16.00;14.00;;;;;;;;5062207;28;8851;-78
2021/10/25 14:32:40;;;;;;;;;15.00;15.00;;;;;;;;5063583;28;8977;-78
2021/10/25 14:35:09;;;;;;;;;15.75;14.50;;;;;;;;5062272;28;8862;-79
2021/10/25 14:37:41;;;;;;;;;16.25;15.50;;;;;;;;5057284;28;8871;-78
2021/10/25 14:40:13;;;;;;;;;14.75;14.75;;;;;;;;5067442;28;8897;-78
2021/10/25 14:42:49;;;;;;;;;16.00;15.50;;;;;;;;5064347;28;8858;-78
2021/10/25 14:45:20;;;;;;;;;18.75;18.75;;;;;;;;5062493;28;8851;-78
2021/10/25 14:53:34;;;;;;;;;15.00;15.00;;;;;;;;5052841;28;8846;-78
2021/10/25 14:56:05;;;;;;;;;11.50;11.25;;;;;;;;5060912;28;8854;-79
2021/10/25 14:58:33;;;;;;;;;14.50;13.00;;;;;;;;5062675;28;8920;-79
2021/10/25 15:01:01;;;;;;;;;9.00;7.75;;;;;;;;5060816;28;8788;-78
2021/10/25 15:03:29;;;;;;;;;10.00;10.00;;;;;;;;5061700;28;8874;-78
2021/10/25 15:05:58;;;;;;;;;11.25;10.50;;;;;;;;5063672;28;8925;-78
2021/10/25 15:08:26;;;;;;;;;13.00;10.00;;;;;;;;5061975;28;9701;-79
2021/10/25 15:10:57;;;;;;;;;18.00;15.50;;;;;;;;5062347;28;8891;-79
2021/10/25 15:13:25;;;;;;;;;19.25;18.50;;;;;;;;5058810;28;8873;-79
2021/10/25 15:15:53;;;;;;;;;14.75;14.00;;;;;;;;5061332;28;8862;-79
2021/10/25 15:18:20;;;;;;;;;13.75;13.75;;;;;;;;5061718;28;8854;-79
2021/10/25 15:20:48;;;;;;;;;13.75;13.00;;;;;;;;5060412;28;8878;-79
2021/10/25 15:23:16;;;;;;;;;15.00;15.00;;;;;;;;5061695;28;8983;-77
2021/10/25 15:25:44;;;;;;;;;16.75;16.50;;;;;;;;5062395;28;8905;-77
2021/10/25 15:28:14;;;;;;;;;15.50;15.50;;;;;;;;5066732;28;8937;-77
2021/10/25 15:30:42;;;;;;;;;17.50;15.25;;;;;;;;5064851;28;8823;-78
2021/10/25 15:33:09;;;;;;;;;18.25;15.75;;;;;;;;5065719;28;9766;-77
2021/10/25 15:35:37;;;;;;;;;18.75;16.75;;;;;;;;5063513;28;8879;-79
2021/10/25 15:38:04;;;;;;;;;17.00;14.00;;;;;;;;5063650;28;8879;-79
2021/10/25 15:40:32;;;;;;;;;13.00;13.00;;;;;;;;5065205;28;8843;-79
2021/10/25 15:43:00;;;;;;;;;10.75;10.75;;;;;;;;5064203;28;9498;-79
2021/10/25 15:45:28;;;;;;;;;15.00;12.50;;;;;;;;5064281;28;8970;-82
2021/10/25 15:47:56;;;;;;;;;10.75;8.50;;;;;;;;5065664;28;8870;-79
2021/10/25 15:50:23;;;;;;;;;13.00;11.25;;;;;;;;5066689;28;8867;-84
2021/10/25 15:52:51;;;;;;;;;10.50;9.75;;;;;;;;5063902;28;8965;-80
2021/10/25 15:55:18;;;;;;;;;11.75;11.75;;;;;;;;5065969;28;8870;-83
2021/10/25 15:57:45;;;;;;;;;11.50;11.50;;;;;;;;5065192;28;8871;-79
2021/10/25 16:00:14;;;;;;;;;15.00;12.25;;;;;;;;5064146;28;8997;-78